Time;durP1;ratioP1;P1;durP2;ratioP2;P2;SDS_P1;SDS_P2;PMS_P1;PMS_P2;Temp;Humidity;BMP_temperature;BMP_pressure;BME280_temperature;BME280_humidity;BME280_pressure;Samples;Min_cycle;Max_cycle;Signal;HPM_P1;HPM_P2
2024/03/26 00:00:57;;;;;;;1.32;1.00;;;;;;;5.10;91.28;99262.09;1721469;82;21242;-73
2024/03/26 00:03:26;;;;;;;1.65;0.95;;;;;;;5.12;91.26;99276.31;1721357;82;21185;-74
2024/03/26 00:05:54;;;;;;;1.42;1.00;;;;;;;5.13;91.26;99265.78;1721428;83;21094;-75
2024/03/26 00:08:23;;;;;;;1.52;1.10;;;;;;;5.12;91.22;99265.45;1721434;83;21126;-74
2024/03/26 00:10:52;;;;;;;1.55;1.00;;;;;;;5.12;91.07;99275.47;1721556;82;21086;-74
2024/03/26 00:13:20;;;;;;;1.50;1.10;;;;;;;5.10;90.96;99264.28;1721485;83;21122;-74
2024/03/26 00:15:49;;;;;;;1.60;1.00;;;;;;;5.08;90.87;99266.87;1721549;83;21146;-73
2024/03/26 00:18:18;;;;;;;2.62;1.22;;;;;;;5.07;90.86;99259.75;1721421;82;21149;-74
2024/03/26 00:20:46;;;;;;;1.77;1.02;;;;;;;5.06;90.81;99267.06;1721328;82;21153;-74
2024/03/26 00:23:16;;;;;;;1.47;1.10;;;;;;;5.05;90.70;99265.89;1721238;82;21126;-74
2024/03/26 00:25:45;;;;;;;1.42;0.98;;;;;;;5.04;90.69;99260.98;1721661;82;21138;-74
2024/03/26 00:28:13;;;;;;;1.70;0.93;;;;;;;5.07;90.73;99263.83;1721346;82;21128;-74
2024/03/26 00:30:42;;;;;;;1.40;1.00;;;;;;;5.07;90.61;99265.19;1721378;82;21189;-74
2024/03/26 00:33:11;;;;;;;1.40;0.80;;;;;;;5.06;90.49;99265.70;1721074;83;21597;-74
2024/03/26 00:35:39;;;;;;;0.80;0.80;;;;;;;5.06;90.52;99267.06;1721300;82;21118;-75
2024/03/26 00:38:09;;;;;;;1.65;1.00;;;;;;;5.06;90.42;99254.00;1721434;83;21240;-74
2024/03/26 00:40:39;;;;;;;2.30;0.90;;;;;;;5.06;90.22;99264.34;1721432;83;21126;-74
2024/03/26 00:43:08;;;;;;;1.37;0.93;;;;;;;5.05;90.19;99271.31;1721204;83;21167;-75
2024/03/26 00:45:37;;;;;;;1.75;0.93;;;;;;;5.05;90.00;99268.61;1718601;82;21114;-73
2024/03/26 00:48:05;;;;;;;1.72;1.10;;;;;;;5.04;89.93;99263.69;1751921;82;21162;-74
2024/03/26 00:50:34;;;;;;;1.85;1.15;;;;;;;5.04;89.84;99267.77;1751837;80;21103;-74
2024/03/26 00:53:03;;;;;;;1.25;0.90;;;;;;;5.05;89.86;99264.02;1751883;81;21576;-74
2024/03/26 00:55:32;;;;;;;1.92;1.00;;;;;;;5.09;89.81;99267.20;1751972;82;21147;-74
2024/03/26 00:58:02;;;;;;;1.00;0.80;;;;;;;5.11;89.74;99267.84;1751883;82;21123;-74
2024/03/26 01:00:30;;;;;;;1.52;0.82;;;;;;;5.10;89.43;99264.80;1716111;82;21229;-74
2024/03/26 01:02:59;;;;;;;0.78;0.70;;;;;;;5.10;89.19;99266.16;1716131;82;21138;-74
2024/03/26 01:05:28;;;;;;;0.80;0.80;;;;;;;5.09;89.15;99263.96;1688384;83;21142;-74
2024/03/26 01:07:57;;;;;;;2.00;1.10;;;;;;;5.11;89.12;99262.41;1751907;82;21604;-74
2024/03/26 01:10:26;;;;;;;1.62;0.90;;;;;;;5.12;89.13;99264.61;1752102;82;21115;-73
2024/03/26 01:12:54;;;;;;;1.30;1.00;;;;;;;5.13;89.03;99263.58;1751898;82;21586;-74
2024/03/26 01:15:23;;;;;;;1.02;0.90;;;;;;;5.14;88.93;99262.55;1751827;80;21123;-74
2024/03/26 01:17:52;;;;;;;1.75;1.10;;;;;;;5.14;88.82;99263.39;1752034;82;21190;-73
2024/03/26 01:20:20;;;;;;;1.72;1.60;;;;;;;5.13;88.75;99260.86;1752144;82;21115;-74
2024/03/26 01:22:49;;;;;;;2.00;0.93;;;;;;;5.15;88.70;99261.00;1751895;82;21120;-73
2024/03/26 01:25:18;;;;;;;3.08;0.90;;;;;;;5.16;88.55;99268.11;1751813;81;21205;-74
2024/03/26 01:27:47;;;;;;;1.82;0.80;;;;;;;5.16;88.36;99264.56;1715949;82;21114;-75
2024/03/26 01:30:15;;;;;;;1.32;0.80;;;;;;;5.14;88.26;99271.53;1752032;82;21182;-74
2024/03/26 01:32:45;;;;;;;1.10;0.90;;;;;;;5.14;88.17;99272.89;1715901;82;21585;-74
2024/03/26 01:35:14;;;;;;;1.07;0.90;;;;;;;5.13;88.05;99263.06;1751826;82;21566;-72
2024/03/26 01:37:42;;;;;;;0.90;0.70;;;;;;;5.12;87.94;99261.89;1716042;82;21186;-75
2024/03/26 01:40:12;;;;;;;1.55;0.80;;;;;;;5.07;87.78;99270.09;1752089;82;21159;-73
2024/03/26 01:42:41;;;;;;;3.00;1.00;;;;;;;5.06;87.86;99273.00;1751925;82;21608;-74
2024/03/26 01:45:10;;;;;;;1.40;0.80;;;;;;;5.06;87.87;99271.13;1750570;81;21167;-74
2024/03/26 01:47:38;;;;;;;1.07;0.72;;;;;;;5.05;87.87;99277.59;1744108;82;21097;-73
2024/03/26 01:50:12;;;;;;;2.37;1.02;;;;;;;5.04;87.78;99274.55;1744007;81;21112;-73
2024/03/26 01:52:41;;;;;;;1.60;0.82;;;;;;;5.04;87.70;99276.42;1708417;84;21218;-73
2024/03/26 01:55:09;;;;;;;0.80;0.70;;;;;;;5.04;87.75;99287.28;1708397;82;21111;-73
2024/03/26 01:57:38;;;;;;;1.57;0.93;;;;;;;5.02;87.58;99290.70;1744112;82;21208;-72
2024/03/26 02:00:08;;;;;;;0.90;0.68;;;;;;;5.01;87.63;99289.02;1708374;84;21162;-73
2024/03/26 02:02:44;;;;;;;2.22;0.68;;;;;;;5.02;87.55;99297.48;1687293;84;21189;-73
2024/03/26 02:05:13;;;;;;;2.60;0.80;;;;;;;4.99;87.49;99298.70;1744111;82;21107;-75
2024/03/26 02:07:42;;;;;;;1.22;0.70;;;;;;;4.96;87.48;99298.24;1708535;84;21201;-73
2024/03/26 02:10:11;;;;;;;1.12;0.68;;;;;;;4.97;87.61;99301.28;1744253;81;21142;-74
2024/03/26 02:12:39;;;;;;;1.30;0.75;;;;;;;4.98;87.63;99302.97;1708350;84;21091;-73
2024/03/26 02:15:08;;;;;;;1.27;0.72;;;;;;;5.01;87.54;99305.30;1743866;82;21656;-71
2024/03/26 02:17:37;;;;;;;0.90;0.60;;;;;;;5.00;87.44;99313.13;1743915;81;21566;-73
2024/03/26 02:20:08;;;;;;;0.93;0.70;;;;;;;4.98;87.35;99309.23;1708251;84;21187;-74
2024/03/26 02:22:37;;;;;;;1.60;0.80;;;;;;;4.96;87.33;99310.45;1743744;82;21198;-73
2024/03/26 02:25:07;;;;;;;2.45;0.85;;;;;;;4.95;87.35;99301.98;1708133;82;21156;-74
2024/03/26 02:27:36;;;;;;;0.68;0.60;;;;;;;4.97;87.42;99304.84;1743855;82;21127;-74
2024/03/26 02:30:06;;;;;;;1.15;0.75;;;;;;;4.98;87.36;99301.09;1708288;83;21126;-74
2024/03/26 02:32:35;;;;;;;1.25;0.80;;;;;;;4.98;87.25;99296.18;1743825;82;21801;-74
2024/03/26 02:35:04;;;;;;;1.25;0.78;;;;;;;4.96;87.25;99302.31;1708288;84;21620;-74
2024/03/26 02:37:33;;;;;;;1.95;0.80;;;;;;;4.96;87.29;99314.53;1744145;82;21187;-73
2024/03/26 02:40:02;;;;;;;3.22;0.80;;;;;;;4.96;87.17;99309.10;1708414;82;21570;-74
2024/03/26 02:42:31;;;;;;;1.20;0.80;;;;;;;4.98;87.22;99312.47;1744170;82;21120;-74
2024/03/26 02:44:59;;;;;;;1.07;0.70;;;;;;;4.99;87.08;99316.87;1708238;82;21213;-73
2024/03/26 02:47:28;;;;;;;0.50;0.50;;;;;;;4.98;86.95;99324.69;1715859;82;21162;-75
2024/03/26 02:49:56;;;;;;;2.27;0.70;;;;;;;4.96;86.81;99325.38;1715866;83;21122;-74
2024/03/26 02:52:25;;;;;;;1.80;0.65;;;;;;;4.96;86.73;99319.44;1715954;82;21170;-74
2024/03/26 02:54:54;;;;;;;1.92;0.80;;;;;;;4.93;86.56;99324.41;1715853;83;21102;-73
2024/03/26 02:57:22;;;;;;;0.90;0.60;;;;;;;4.95;86.52;99327.77;1715860;82;21146;-74
2024/03/26 02:59:51;;;;;;;1.15;0.68;;;;;;;4.94;86.44;99331.52;1715975;82;21146;-74
2024/03/26 03:02:20;;;;;;;2.37;0.80;;;;;;;4.93;86.37;99335.27;1715824;83;21122;-74
2024/03/26 03:04:49;;;;;;;0.65;0.53;;;;;;;4.94;86.23;99344.58;1715996;83;21150;-73
2024/03/26 03:07:17;;;;;;;1.40;0.70;;;;;;;4.96;86.13;99344.38;1751874;82;21131;-74
2024/03/26 03:09:46;;;;;;;1.32;0.65;;;;;;;4.96;85.91;99344.38;1715909;83;21134;-73
2024/03/26 03:12:15;;;;;;;1.05;0.57;;;;;;;4.97;85.80;99351.50;1751869;82;21639;-73
2024/03/26 03:14:43;;;;;;;1.37;0.50;;;;;;;4.99;85.72;99350.28;1751823;81;21163;-74
2024/03/26 03:17:12;;;;;;;1.45;0.60;;;;;;;5.01;85.47;99357.72;1751819;81;21150;-74
2024/03/26 03:19:40;;;;;;;2.08;0.60;;;;;;;5.00;85.31;99363.34;1751809;81;21574;-73
2024/03/26 03:22:10;;;;;;;2.02;0.80;;;;;;;5.01;85.22;99373.16;1751952;80;21159;-74
2024/03/26 03:24:38;;;;;;;1.40;0.78;;;;;;;5.00;85.01;99381.83;1751840;82;21139;-74
2024/03/26 03:27:07;;;;;;;2.00;0.65;;;;;;;4.99;84.96;99386.92;1752234;80;21119;-74
2024/03/26 03:29:35;;;;;;;1.35;0.78;;;;;;;4.98;84.69;99386.59;1752115;82;21190;-73
2024/03/26 03:32:05;;;;;;;1.65;0.70;;;;;;;4.97;84.69;99397.64;1752106;82;21220;-74
2024/03/26 03:34:33;;;;;;;0.95;0.68;;;;;;;4.98;84.76;99393.38;1751895;81;21115;-74
2024/03/26 03:37:02;;;;;;;2.50;0.90;;;;;;;4.99;84.66;99403.73;1751820;81;21119;-74
2024/03/26 03:39:30;;;;;;;0.90;0.68;;;;;;;4.99;84.42;99389.64;1752003;82;21581;-74
2024/03/26 03:41:59;;;;;;;1.02;0.57;;;;;;;4.97;84.35;99399.00;1752080;82;21143;-74
2024/03/26 03:44:35;;;;;;;1.27;0.60;;;;;;;4.96;84.29;99397.31;1752178;82;21570;-74
2024/03/26 03:46:58;;;;;;;1.62;0.62;;;;;;;4.93;84.19;99390.39;1754738;81;21631;-73
2024/03/26 03:49:28;;;;;;;0.85;0.70;;;;;;;4.95;84.17;99396.47;1757222;82;21099;-73
2024/03/26 03:51:57;;;;;;;1.85;0.72;;;;;;;4.96;84.06;99400.03;1757546;82;21107;-74
2024/03/26 03:54:28;;;;;;;0.60;0.60;;;;;;;4.97;84.06;99404.42;1721488;83;21090;-73
2024/03/26 03:56:57;;;;;;;2.22;0.90;;;;;;;4.97;84.05;99408.50;1721240;83;21106;-73
2024/03/26 03:59:25;;;;;;;1.07;0.78;;;;;;;4.96;84.00;99409.02;1721431;83;21173;-74
2024/03/26 04:01:54;;;;;;;3.20;0.95;;;;;;;4.95;84.03;99419.55;1721474;83;21635;-74
2024/03/26 04:04:23;;;;;;;1.52;0.72;;;;;;;4.95;84.02;99429.05;1721567;82;21154;-74
2024/03/26 04:06:52;;;;;;;1.02;0.60;;;;;;;4.96;84.00;99423.09;1721337;83;21616;-74
2024/03/26 04:09:20;;;;;;;1.72;0.68;;;;;;;4.98;84.06;99425.11;1721387;82;21201;-75
2024/03/26 04:11:50;;;;;;;2.70;0.88;;;;;;;4.95;83.55;99425.48;1721307;82;21146;-73
2024/03/26 04:14:21;;;;;;;3.75;1.02;;;;;;;4.92;83.70;99429.93;1721232;83;21130;-74
2024/03/26 04:16:50;;;;;;;1.05;0.80;;;;;;;4.93;83.82;99436.53;1721381;82;21161;-74
2024/03/26 04:19:18;;;;;;;2.12;0.70;;;;;;;4.95;83.86;99442.62;1721177;82;21142;-74
2024/03/26 04:21:47;;;;;;;2.25;0.90;;;;;;;4.98;83.64;99449.55;1721507;83;21165;-74
2024/03/26 04:24:15;;;;;;;1.17;0.82;;;;;;;4.95;83.58;99449.40;1721550;83;21177;-74
2024/03/26 04:26:44;;;;;;;1.20;0.80;;;;;;;4.98;83.69;99454.97;1721342;83;21181;-73
2024/03/26 04:29:12;;;;;;;1.80;0.78;;;;;;;4.99;83.68;99460.73;1721295;82;21118;-75
2024/03/26 04:31:41;;;;;;;1.32;0.80;;;;;;;5.00;83.59;99461.06;1721395;83;21190;-73
2024/03/26 04:34:10;;;;;;;2.95;0.80;;;;;;;4.98;83.55;99469.39;1721396;83;21125;-74
2024/03/26 04:36:39;;;;;;;1.67;0.78;;;;;;;5.00;83.70;99477.34;1721386;82;21188;-74
2024/03/26 04:39:09;;;;;;;1.95;0.62;;;;;;;5.03;83.68;99485.13;1721255;83;21154;-75
2024/03/26 04:41:38;;;;;;;2.17;0.93;;;;;;;5.05;83.48;99492.05;1721392;83;21145;-73
2024/03/26 04:44:06;;;;;;;3.72;1.05;;;;;;;5.05;83.36;99493.92;1721631;82;21153;-73
2024/03/26 04:46:35;;;;;;;1.25;0.88;;;;;;;5.06;83.26;99496.97;1719556;83;21118;-74
2024/03/26 04:49:04;;;;;;;0.90;0.72;;;;;;;5.05;83.18;99496.64;1716236;83;21162;-74
2024/03/26 04:51:32;;;;;;;2.42;0.90;;;;;;;5.06;83.21;99501.88;1752053;82;21103;-73
2024/03/26 04:54:01;;;;;;;1.22;0.60;;;;;;;5.06;83.19;99510.03;1716046;83;21146;-74
2024/03/26 04:56:30;;;;;;;1.67;0.80;;;;;;;5.07;83.16;99513.59;1752031;82;21167;-74
2024/03/26 04:58:59;;;;;;;3.00;0.80;;;;;;;5.08;83.13;99515.27;1751872;82;21578;-73
2024/03/26 05:01:28;;;;;;;3.27;0.90;;;;;;;5.09;83.24;99519.16;1751914;82;21123;-75
2024/03/26 05:03:57;;;;;;;1.80;0.80;;;;;;;5.11;83.18;99517.62;1715906;83;21118;-74
2024/03/26 05:06:25;;;;;;;1.42;0.80;;;;;;;5.13;83.20;99515.56;1715932;83;21177;-74
2024/03/26 05:08:54;;;;;;;3.25;0.93;;;;;;;5.16;83.23;99527.93;1751875;82;21107;-73
2024/03/26 05:11:23;;;;;;;3.12;1.00;;;;;;;5.17;83.19;99535.89;1715812;83;21623;-74
2024/03/26 05:13:52;;;;;;;1.92;0.62;;;;;;;5.16;83.03;99530.13;1715815;82;21546;-75
2024/03/26 05:16:21;;;;;;;1.90;0.90;;;;;;;5.16;83.07;99542.34;1715811;83;21225;-74
2024/03/26 05:18:50;;;;;;;2.85;0.90;;;;;;;5.16;82.95;99537.43;1715911;82;21119;-74
2024/03/26 05:21:18;;;;;;;3.25;1.20;;;;;;;5.18;82.98;99537.58;1688084;82;21154;-74
2024/03/26 05:23:47;;;;;;;1.95;0.80;;;;;;;5.21;82.85;99542.67;1716158;83;21158;-73
2024/03/26 05:26:16;;;;;;;2.40;0.90;;;;;;;5.24;82.84;99545.53;1751926;80;21159;-73
2024/03/26 05:28:44;;;;;;;2.75;0.80;;;;;;;5.29;82.84;99549.38;1751980;82;21123;-74
2024/03/26 05:31:21;;;;;;;1.52;0.90;;;;;;;5.31;82.70;99554.11;1715909;83;21155;-74
2024/03/26 05:33:50;;;;;;;1.70;0.90;;;;;;;5.31;82.60;99559.55;1716065;82;21210;-74
2024/03/26 05:36:19;;;;;;;1.85;1.22;;;;;;;5.34;82.42;99560.53;1751880;81;21581;-74
2024/03/26 05:38:47;;;;;;;4.92;1.30;;;;;;;5.35;82.34;99556.79;1751919;82;21135;-73
2024/03/26 05:41:16;;;;;;;2.15;0.90;;;;;;;5.37;82.16;99556.61;1646595;87;21138;-74
2024/03/26 05:43:45;;;;;;;2.08;1.15;;;;;;;5.39;82.08;99563.54;1646531;87;21570;-74
2024/03/26 05:46:13;;;;;;;2.58;1.00;;;;;;;5.44;82.09;99562.14;1646522;86;21178;-74
2024/03/26 05:48:42;;;;;;;1.42;0.95;;;;;;;5.47;82.07;99569.92;1651212;87;21166;-74
2024/03/26 05:51:10;;;;;;;1.72;0.80;;;;;;;5.49;81.97;99565.98;1650856;87;21614;-75
2024/03/26 05:53:39;;;;;;;1.75;0.80;;;;;;;5.53;81.92;99575.97;1650884;87;21217;-74
2024/03/26 05:56:08;;;;;;;1.72;1.00;;;;;;;5.55;81.67;99570.68;1650975;87;21150;-74
2024/03/26 05:58:37;;;;;;;5.37;1.00;;;;;;;5.57;81.47;99582.72;1668255;82;21143;-75
2024/03/26 06:01:06;;;;;;;3.12;1.22;;;;;;;5.59;81.58;99577.95;1753987;81;21766;-74
2024/03/26 06:03:36;;;;;;;3.77;1.00;;;;;;;5.62;81.62;99583.85;1717989;83;21178;-75
2024/03/26 06:06:06;;;;;;;1.70;0.98;;;;;;;5.70;81.49;99580.20;1717926;83;21126;-74
2024/03/26 06:08:35;;;;;;;1.82;1.00;;;;;;;5.72;81.38;99580.34;1718220;83;21546;-73
2024/03/26 06:11:04;;;;;;;3.00;1.02;;;;;;;5.75;81.28;99583.20;1717914;82;21755;-75
2024/03/26 06:13:32;;;;;;;1.35;0.80;;;;;;;5.80;81.11;99585.36;1717803;83;21628;-74
2024/03/26 06:16:08;;;;;;;3.87;1.10;;;;;;;5.83;80.65;99584.47;1753965;82;21601;-74
2024/03/26 06:18:38;;;;;;;2.47;1.37;;;;;;;5.82;80.40;99593.66;1754129;81;21119;-74
2024/03/26 06:21:07;;;;;;;4.35;1.12;;;;;;;5.83;80.11;99595.34;1735290;82;21563;-74
2024/03/26 06:23:35;;;;;;;1.62;0.90;;;;;;;5.87;79.97;99598.56;1718045;82;21149;-74
2024/03/26 06:26:04;;;;;;;1.12;0.62;;;;;;;5.86;79.50;99596.36;1718028;83;21102;-74
2024/03/26 06:28:34;;;;;;;2.83;0.95;;;;;;;5.91;78.93;99609.42;1717809;82;21205;-74
2024/03/26 06:31:03;;;;;;;4.37;0.98;;;;;;;5.90;78.88;99608.58;1754169;80;21127;-74
2024/03/26 06:33:32;;;;;;;2.12;0.80;;;;;;;5.92;78.83;99607.03;1754372;82;21146;-74
2024/03/26 06:36:01;;;;;;;2.00;0.90;;;;;;;5.95;78.54;99612.09;1717905;83;21545;-74
2024/03/26 06:38:30;;;;;;;1.90;0.98;;;;;;;5.98;78.57;99613.92;1753947;82;21119;-74
2024/03/26 06:40:59;;;;;;;5.17;1.27;;;;;;;6.02;78.18;99606.23;1754208;80;21114;-74
2024/03/26 06:43:28;;;;;;;3.05;1.30;;;;;;;6.06;78.25;99612.14;1717948;83;21184;-74
2024/03/26 06:45:57;;;;;;;3.50;0.90;;;;;;;6.10;78.00;99616.17;1718019;83;21154;-74
2024/03/26 06:48:26;;;;;;;1.62;0.88;;;;;;;6.11;77.86;99615.14;1756564;82;21091;-74
2024/03/26 06:50:55;;;;;;;7.08;1.65;;;;;;;6.12;77.41;99614.11;1757220;80;21115;-74
2024/03/26 06:53:24;;;;;;;3.27;1.37;;;;;;;6.18;77.43;99620.16;1721319;83;21538;-74
2024/03/26 06:55:53;;;;;;;1.57;0.90;;;;;;;6.24;77.17;99622.12;1721367;82;21125;-72
2024/03/26 06:58:22;;;;;;;3.42;0.95;;;;;;;6.32;77.21;99624.73;1721422;83;21165;-74
2024/03/26 07:00:51;;;;;;;3.77;0.90;;;;;;;6.34;77.00;99626.23;1721353;82;21185;-74
2024/03/26 07:03:19;;;;;;;3.17;0.98;;;;;;;6.40;77.12;99625.99;1721251;82;21157;-74
2024/03/26 07:05:48;;;;;;;5.97;1.50;;;;;;;6.44;77.04;99630.02;1721337;82;21134;-73
2024/03/26 07:08:17;;;;;;;3.12;1.20;;;;;;;6.47;77.30;99632.36;1695542;83;21177;-74
2024/03/26 07:10:49;;;;;;;4.10;1.40;;;;;;;6.54;77.57;99638.77;1721515;83;21110;-74
2024/03/26 07:13:18;;;;;;;3.72;1.15;;;;;;;6.62;77.43;99644.09;1721428;83;21094;-73
2024/03/26 07:15:47;;;;;;;2.50;1.22;;;;;;;6.66;77.05;99647.28;1721455;82;21145;-74
2024/03/26 07:18:16;;;;;;;2.62;1.22;;;;;;;6.73;77.01;99649.56;1721431;82;21126;-74
2024/03/26 07:20:47;;;;;;;4.22;1.42;;;;;;;6.80;76.79;99646.40;1721400;83;21670;-74
2024/03/26 07:23:17;;;;;;;2.85;1.10;;;;;;;6.84;76.16;99642.25;1695263;83;21118;-74
2024/03/26 07:25:47;;;;;;;2.27;1.17;;;;;;;6.87;76.18;99656.84;1721415;83;21593;-74
2024/03/26 07:28:15;;;;;;;1.80;1.00;;;;;;;6.92;76.17;99656.27;1721492;82;21106;-75
2024/03/26 07:30:44;;;;;;;2.30;1.10;;;;;;;6.99;75.85;99655.83;1721424;82;21146;-74
2024/03/26 07:33:13;;;;;;;4.92;1.40;;;;;;;7.06;75.52;99662.19;1721526;83;21113;-75
2024/03/26 07:35:42;;;;;;;1.90;1.37;;;;;;;7.10;75.01;99662.12;1721521;83;21185;-74
2024/03/26 07:38:10;;;;;;;4.75;1.30;;;;;;;7.16;74.92;99668.19;1721413;82;21595;-75
2024/03/26 07:40:39;;;;;;;2.65;1.37;;;;;;;7.22;74.02;99664.69;1721389;83;21149;-75
2024/03/26 07:43:08;;;;;;;5.87;3.08;;;;;;;7.26;73.51;99676.05;1721416;82;21574;-75
2024/03/26 07:45:38;;;;;;;3.65;1.40;;;;;;;7.30;72.94;99678.70;1719287;83;21682;-74
2024/03/26 07:48:07;;;;;;;3.65;0.90;;;;;;;7.33;72.58;99680.20;1718343;82;21248;-74
2024/03/26 07:50:36;;;;;;;2.62;1.20;;;;;;;7.35;72.13;99682.21;1716041;83;21158;-74
2024/03/26 07:53:05;;;;;;;5.50;1.10;;;;;;;7.38;72.06;99675.00;1715938;83;21126;-76
2024/03/26 07:55:34;;;;;;;2.37;0.90;;;;;;;7.44;71.99;99681.04;1715964;82;21201;-75
2024/03/26 07:58:04;;;;;;;3.25;1.00;;;;;;;7.50;71.81;99686.55;1716044;82;21114;-74
2024/03/26 08:00:33;;;;;;;4.05;1.20;;;;;;;7.61;71.80;99681.09;1687970;83;21146;-74
2024/03/26 08:03:02;;;;;;;3.20;1.20;;;;;;;7.71;71.00;99681.60;1752078;82;21578;-75
2024/03/26 08:05:32;;;;;;;2.50;1.30;;;;;;;7.85;70.98;99686.67;1751885;82;21158;-74
2024/03/26 08:08:00;;;;;;;8.85;1.60;;;;;;;7.99;70.42;99688.98;1715882;82;21400;-74
2024/03/26 08:10:30;;;;;;;4.92;2.10;;;;;;;8.13;70.00;99693.48;1716012;83;21658;-74
2024/03/26 08:13:00;;;;;;;4.22;1.00;;;;;;;8.21;68.58;99689.24;1715849;83;21154;-73
2024/03/26 08:15:29;;;;;;;3.75;1.20;;;;;;;8.30;68.13;99701.69;1715953;83;21631;-73
2024/03/26 08:17:58;;;;;;;6.42;2.10;;;;;;;8.41;67.61;99703.05;1751916;82;21162;-74
2024/03/26 08:20:30;;;;;;;3.55;1.80;;;;;;;8.52;67.18;99698.42;1752182;82;21236;-74
2024/03/26 08:22:59;;;;;;;2.67;1.60;;;;;;;8.65;67.18;99699.84;1752149;82;21202;-74
2024/03/26 08:25:28;;;;;;;2.60;1.12;;;;;;;8.80;67.04;99701.08;1752241;81;21201;-74
2024/03/26 08:27:57;;;;;;;5.28;1.27;;;;;;;8.92;66.27;99706.80;1751913;82;21147;-75
2024/03/26 08:30:26;;;;;;;2.92;1.22;;;;;;;8.99;65.24;99704.41;1732197;82;21123;-75
2024/03/26 08:32:55;;;;;;;4.97;1.07;;;;;;;9.01;64.73;99709.14;1751703;82;21361;-75
2024/03/26 08:35:24;;;;;;;3.40;1.30;;;;;;;9.11;64.57;99712.89;1751835;82;21667;-75
2024/03/26 08:37:53;;;;;;;3.37;1.30;;;;;;;9.20;64.03;99708.92;1751745;82;21154;-74
2024/03/26 08:40:23;;;;;;;3.40;1.07;;;;;;;9.33;63.50;99705.38;1751774;82;21127;-75
2024/03/26 08:42:52;;;;;;;2.75;1.05;;;;;;;9.38;62.60;99717.38;1751936;82;21146;-74
2024/03/26 08:45:21;;;;;;;5.95;1.50;;;;;;;9.39;62.35;99710.86;1751351;82;21127;-75
2024/03/26 08:47:49;;;;;;;3.70;1.60;;;;;;;9.49;62.53;99711.30;1713821;82;21566;-74
2024/03/26 08:50:18;;;;;;;4.92;1.45;;;;;;;9.64;62.30;99708.38;1743940;82;21119;-75
2024/03/26 08:52:47;;;;;;;4.75;1.40;;;;;;;9.73;61.40;99707.12;1708453;82;21154;-75
2024/03/26 08:55:28;;;;;;;3.33;1.27;;;;;;;9.77;61.09;99700.22;1686570;84;21142;-76
2024/03/26 08:58:10;;;;;;;8.13;4.97;;;;;;;9.82;60.09;99710.53;1754896;80;21190;-75
2024/03/26 09:00:40;;;;;;;6.10;1.57;;;;;;;9.84;60.49;99710.64;1764082;81;21155;-79
2024/03/26 09:03:09;;;;;;;4.15;1.15;;;;;;;9.85;60.22;99697.27;1741290;80;21142;-78
2024/03/26 09:05:42;;;;;;;3.52;1.25;;;;;;;9.82;60.10;99707.27;1736261;81;21226;-79
2024/03/26 09:08:17;;;;;;;1.87;1.10;;;;;;;9.80;60.37;99709.90;1773429;81;21146;-83
2024/03/26 09:10:46;;;;;;;2.30;1.20;;;;;;;9.98;65.14;99706.53;1773661;81;21162;-82
2024/03/26 09:13:15;;;;;;;3.12;1.12;;;;;;;10.12;62.40;99710.42;1774603;81;21142;-84
2024/03/26 09:15:46;;;;;;;1.57;1.00;;;;;;;10.17;60.75;99705.15;1773291;81;21115;-83
2024/03/26 09:18:15;;;;;;;6.97;1.40;;;;;;;10.17;59.64;99711.16;1773085;81;21123;-82
2024/03/26 09:20:45;;;;;;;4.22;1.57;;;;;;;10.15;59.33;99707.78;1773290;80;21144;-82
2024/03/26 09:23:13;;;;;;;6.47;1.40;;;;;;;10.17;59.21;99707.05;1752115;81;21239;-86
2024/03/26 09:25:43;;;;;;;4.50;1.60;;;;;;;10.22;59.08;99714.13;1775265;81;21174;-86
2024/03/26 09:28:12;;;;;;;3.80;0.98;;;;;;;10.25;58.42;99714.23;1774440;81;21100;-86
2024/03/26 09:30:41;;;;;;;2.83;1.20;;;;;;;10.27;58.56;99714.33;1773786;81;21158;-85
2024/03/26 09:33:11;;;;;;;3.08;1.22;;;;;;;10.26;57.49;99717.28;1774009;81;21559;-84
2024/03/26 09:35:44;;;;;;;6.75;1.35;;;;;;;10.21;57.47;99708.33;1753869;81;21163;-87
2024/03/26 09:38:14;;;;;;;2.25;1.17;;;;;;;10.18;57.55;99709.56;1688715;84;21134;-87
2024/03/26 09:40:53;;;;;;;3.17;1.57;;;;;;;10.20;56.81;99713.98;1774181;81;21573;-86
2024/03/26 09:43:25;;;;;;;4.83;1.20;;;;;;;10.13;56.58;99724.95;1774066;81;21640;-87
2024/03/26 09:45:57;;;;;;;5.33;1.25;;;;;;;10.13;56.98;99724.42;1773753;81;21099;-87
2024/03/26 09:48:29;;;;;;;2.12;0.95;;;;;;;10.15;56.78;99722.84;1775192;81;21115;-85
2024/03/26 09:50:59;;;;;;;3.02;1.20;;;;;;;10.16;56.24;99719.05;1708712;84;21175;-80
2024/03/26 09:53:28;;;;;;;4.15;1.10;;;;;;;10.16;56.30;99718.52;1774824;81;21095;-84
2024/03/26 09:55:57;;;;;;;2.30;1.10;;;;;;;10.18;55.06;99721.89;1773772;81;21598;-86
2024/03/26 09:58:26;;;;;;;2.08;0.93;;;;;;;10.16;55.70;99724.52;1773723;81;21123;-86
2024/03/26 10:00:57;;;;;;;3.33;1.07;;;;;;;10.14;55.01;99733.47;1707727;84;21111;-87
2024/03/26 10:03:27;;;;;;;3.08;1.00;;;;;;;10.09;55.14;99728.63;1752458;81;21175;-84
2024/03/26 10:05:57;;;;;;;2.47;0.90;;;;;;;10.10;55.64;99728.95;1773972;81;21142;-86
2024/03/26 10:08:27;;;;;;;4.58;1.40;;;;;;;10.16;55.10;99731.36;1774669;81;21115;-85
2024/03/26 10:10:57;;;;;;;1.60;1.00;;;;;;;10.16;55.29;99731.36;1774903;81;21115;-83
2024/03/26 10:13:27;;;;;;;4.55;0.90;;;;;;;10.18;55.05;99741.05;1708370;84;21143;-85
2024/03/26 10:15:56;;;;;;;3.62;0.80;;;;;;;10.18;53.60;99726.00;1774258;81;21131;-82
2024/03/26 10:18:27;;;;;;;4.33;0.95;;;;;;;10.13;52.99;99731.79;1774455;81;21135;-83
2024/03/26 10:20:58;;;;;;;3.90;1.12;;;;;;;10.07;53.31;99738.11;1773798;81;21187;-86
2024/03/26 10:23:27;;;;;;;3.33;0.80;;;;;;;10.03;53.46;99740.95;1707434;83;21595;-81
2024/03/26 10:25:58;;;;;;;2.70;0.90;;;;;;;9.99;53.18;99741.05;1772937;81;21123;-78
2024/03/26 10:28:26;;;;;;;3.75;0.82;;;;;;;9.93;53.21;99742.73;1772730;81;21670;-78
2024/03/26 10:30:55;;;;;;;1.95;1.10;;;;;;;9.91;53.77;99748.11;1772782;81;21143;-77
2024/03/26 10:33:24;;;;;;;2.17;0.90;;;;;;;9.95;53.97;99742.00;1772772;81;21167;-79
2024/03/26 10:35:54;;;;;;;5.22;1.00;;;;;;;10.00;53.58;99752.31;1772531;81;21182;-77
2024/03/26 10:38:24;;;;;;;2.20;0.93;;;;;;;10.02;53.31;99752.42;1707127;84;21129;-77
2024/03/26 10:41:05;;;;;;;3.05;0.90;;;;;;;10.04;53.30;99741.27;1773238;81;21027;-79
2024/03/26 10:43:34;;;;;;;3.15;0.90;;;;;;;10.08;53.26;99745.27;1706948;84;21040;-77
2024/03/26 10:58:57;;;;;;;2.25;1.32;;;;;;;10.50;52.32;99751.41;1785343;80;27996;-78
2024/03/26 11:01:27;;;;;;;2.05;1.00;;;;;;;10.42;51.53;99745.09;1759754;81;21156;-78
2024/03/26 11:03:56;;;;;;;2.05;0.85;;;;;;;10.33;51.71;99755.08;1790275;80;21593;-78
2024/03/26 11:06:25;;;;;;;5.25;1.10;;;;;;;10.26;52.00;99749.61;1770269;80;21164;-80
2024/03/26 11:21:44;;;;;;;3.10;0.93;;;;;;;10.62;50.74;99764.77;1835102;77;28594;-74
2024/03/26 11:24:30;;;;;;;6.42;1.30;;;;;;;10.52;50.53;99759.72;1807246;78;21567;-73
2024/03/26 11:27:04;;;;;;;2.30;0.80;;;;;;;10.45;50.89;99769.84;1856664;77;21097;-76
2024/03/26 11:29:35;;;;;;;2.47;1.10;;;;;;;10.42;50.68;99774.38;1776029;79;21119;-77
2024/03/26 11:32:05;;;;;;;3.25;1.35;;;;;;;10.36;50.65;99766.98;1838348;77;21132;-76
2024/03/26 11:34:35;;;;;;;2.62;1.27;;;;;;;10.28;50.42;99781.73;1776608;78;21200;-77
2024/03/26 11:37:04;;;;;;;3.25;1.15;;;;;;;10.21;50.71;99774.56;1831445;78;21145;-77
2024/03/26 11:39:33;;;;;;;3.00;0.98;;;;;;;10.17;50.56;99765.90;1771586;78;21093;-77
2024/03/26 11:42:03;;;;;;;3.20;1.15;;;;;;;10.16;51.00;99772.42;1831273;77;21161;-76
2024/03/26 11:44:32;;;;;;;2.52;1.00;;;;;;;10.17;50.95;99765.37;1831540;78;21180;-77
2024/03/26 11:47:02;;;;;;;5.47;1.30;;;;;;;10.20;50.58;99765.52;1838024;77;21524;-76
2024/03/26 11:49:37;;;;;;;1.87;1.22;;;;;;;10.23;50.52;99770.56;1798485;80;21103;-76
2024/03/26 11:52:06;;;;;;;3.75;1.27;;;;;;;10.25;49.80;99767.62;1854254;77;21097;-75
2024/03/26 11:54:35;;;;;;;4.37;1.02;;;;;;;10.21;49.81;99774.04;1770294;80;21147;-76
2024/03/26 11:57:03;;;;;;;2.95;0.85;;;;;;;10.20;49.87;99766.00;1854400;77;21129;-76
2024/03/26 11:59:32;;;;;;;3.42;1.10;;;;;;;10.18;50.21;99771.69;1798515;80;21123;-75
2024/03/26 12:02:04;;;;;;;4.00;1.20;;;;;;;10.19;50.14;99784.33;1801596;77;21623;-76
2024/03/26 12:04:33;;;;;;;1.17;0.80;;;;;;;10.20;49.67;99774.22;1828554;77;21121;-76
2024/03/26 12:07:16;;;;;;;4.55;1.10;;;;;;;10.20;49.36;99781.94;1727203;81;21209;-76
2024/03/26 12:09:44;;;;;;;4.62;1.32;;;;;;;10.18;49.01;99782.64;1749409;80;21158;-76
2024/03/26 12:12:13;;;;;;;4.72;1.27;;;;;;;10.15;49.01;99781.16;1729305;81;21123;-76
2024/03/26 12:14:42;;;;;;;5.53;1.30;;;;;;;10.17;49.82;99786.43;1730947;82;21169;-80